createdAt,value
2017-12-10T00:02:04.317Z,99401.78
2017-12-10T00:04:31.750Z,99387.57
2017-12-10T00:06:59.280Z,99395.48
2017-12-10T00:09:26.720Z,99385.77
2017-12-10T00:11:54.175Z,99386.13
2017-12-10T00:14:21.623Z,99381.94
2017-12-10T00:16:49.073Z,99388.22
2017-12-10T00:19:16.510Z,99381.27
2017-12-10T00:21:43.988Z,99381.55
2017-12-10T00:24:11.440Z,99376.44
2017-12-10T00:26:38.887Z,99377.11
2017-12-10T00:29:06.401Z,99375.20
2017-12-10T00:31:33.868Z,99379.88
2017-12-10T00:34:01.411Z,99376.30
2017-12-10T00:36:28.904Z,99370.59
2017-12-10T00:38:56.377Z,99362.89
2017-12-10T00:41:23.830Z,99363.46
2017-12-10T00:43:51.339Z,99354.53
2017-12-10T00:46:18.889Z,99365.27
2017-12-10T00:48:46.462Z,99355.59
2017-12-10T00:51:13.912Z,99352.73
2017-12-10T00:53:41.362Z,99348.60
2017-12-10T00:56:08.873Z,99348.47
2017-12-10T00:58:36.315Z,99345.22
2017-12-10T01:01:03.813Z,99347.55
2017-12-10T01:03:31.395Z,99343.55
2017-12-10T01:05:59.389Z,99343.16
2017-12-10T01:08:26.825Z,99349.22
2017-12-10T01:10:54.411Z,99344.61
2017-12-10T01:13:21.888Z,99345.66
2017-12-10T01:15:49.375Z,99343.55
2017-12-10T01:18:17.075Z,99339.36
2017-12-10T01:20:44.565Z,99332.77
2017-12-10T01:23:12.045Z,99336.28
2017-12-10T01:25:39.561Z,99334.47
2017-12-10T01:28:07.117Z,99330.70
2017-12-10T01:30:34.573Z,99332.16
2017-12-10T01:33:02.069Z,99334.34
2017-12-10T01:35:29.537Z,99334.88
2017-12-10T01:37:57.037Z,99334.92
2017-12-10T01:40:24.496Z,99334.70
2017-12-10T01:42:51.937Z,99331.19
2017-12-10T01:45:19.414Z,99320.54
2017-12-10T01:47:46.893Z,99325.12
2017-12-10T01:50:14.446Z,99316.28
2017-12-10T01:52:41.902Z,99313.20
2017-12-10T01:55:09.336Z,99307.92
2017-12-10T01:57:36.806Z,99319.14
2017-12-10T02:00:04.249Z,99309.55
2017-12-10T02:02:31.781Z,99300.89
2017-12-10T02:04:59.237Z,99305.38
2017-12-10T02:07:26.776Z,99300.05
2017-12-10T02:09:54.216Z,99308.44
2017-12-10T02:12:21.683Z,99300.92
2017-12-10T02:14:49.178Z,99290.06
2017-12-10T02:17:16.815Z,99298.81
2017-12-10T02:19:44.304Z,99297.63
2017-12-10T02:22:11.848Z,99289.74
2017-12-10T02:24:39.325Z,99287.83
2017-12-10T02:27:06.837Z,99282.80
2017-12-10T02:29:34.286Z,99280.17
2017-12-10T02:32:01.761Z,99266.38
2017-12-10T02:34:29.231Z,99258.11
2017-12-10T02:36:56.727Z,99255.92
2017-12-10T02:39:24.240Z,99257.06
2017-12-10T02:41:51.704Z,99248.97
2017-12-10T02:44:19.166Z,99244.45
2017-12-10T02:46:46.630Z,99245.81
2017-12-10T02:49:14.215Z,99230.87
2017-12-10T02:51:41.676Z,99228.48
2017-12-10T02:54:09.143Z,99234.34
2017-12-10T02:56:36.610Z,99227.44
2017-12-10T02:59:04.107Z,99217.64
2017-12-10T03:01:31.609Z,99217.38
2017-12-10T03:03:59.142Z,99212.41
2017-12-10T03:06:26.633Z,99209.65
2017-12-10T03:08:54.130Z,99205.42
2017-12-10T03:11:21.564Z,99202.00
2017-12-10T03:13:49.101Z,99205.95
2017-12-10T03:16:16.520Z,99206.61
2017-12-10T03:18:43.968Z,99200.50
2017-12-10T03:21:11.433Z,99203.02
2017-12-10T03:23:38.890Z,99195.98
2017-12-10T03:26:06.365Z,99195.16
2017-12-10T03:28:33.806Z,99190.14
2017-12-10T03:31:01.310Z,99173.32
2017-12-10T03:33:28.769Z,99176.17
2017-12-10T03:35:56.218Z,99168.23
2017-12-10T03:38:23.741Z,99168.30
2017-12-10T03:40:51.176Z,99161.32
2017-12-10T03:43:18.656Z,99162.64
2017-12-10T03:45:46.127Z,99159.34
2017-12-10T03:48:13.598Z,99158.98
2017-12-10T03:50:42.666Z,99156.70
2017-12-10T03:53:10.138Z,99146.54
2017-12-10T03:55:37.588Z,99143.04
2017-12-10T03:58:05.121Z,99143.88
2017-12-10T04:00:32.589Z,99142.59
2017-12-10T04:03:00.028Z,99141.47
2017-12-10T04:05:27.531Z,99135.59
2017-12-10T04:07:55.155Z,99141.16
2017-12-10T04:10:22.602Z,99136.51
2017-12-10T04:12:50.056Z,99130.67
2017-12-10T04:15:17.611Z,99135.02
2017-12-10T04:17:45.076Z,99135.94
2017-12-10T04:20:12.517Z,99137.47
2017-12-10T04:22:39.986Z,99124.18
2017-12-10T04:25:07.444Z,99118.48
2017-12-10T04:27:34.954Z,99114.19
2017-12-10T04:30:02.451Z,99108.60
2017-12-10T04:32:29.975Z,99107.11
2017-12-10T04:34:57.425Z,99114.97
2017-12-10T04:37:24.941Z,99116.16
2017-12-10T04:39:52.434Z,99107.16
2017-12-10T04:42:19.883Z,99107.16
2017-12-10T04:44:47.393Z,99098.03
2017-12-10T04:47:14.843Z,99092.09
2017-12-10T04:49:42.300Z,99100.48
2017-12-10T04:52:09.740Z,99089.89
2017-12-10T04:54:37.185Z,99089.38
2017-12-10T04:57:04.707Z,99080.73
2017-12-10T04:59:32.142Z,99077.22
2017-12-10T05:01:59.656Z,99074.80
2017-12-10T05:04:27.119Z,99075.25
2017-12-10T05:06:54.572Z,99082.96
2017-12-10T05:09:22.029Z,99066.64
2017-12-10T05:11:49.494Z,99063.05
2017-12-10T05:14:16.955Z,99070.99
2017-12-10T05:16:44.431Z,99061.63
2017-12-10T05:19:11.933Z,99054.44
2017-12-10T05:21:39.388Z,99056.50
2017-12-10T05:24:06.872Z,99056.50
2017-12-10T05:26:34.402Z,99054.27
2017-12-10T05:29:02.022Z,99056.41
2017-12-10T05:31:29.590Z,99056.47
2017-12-10T05:33:57.147Z,99048.34
2017-12-10T05:36:24.588Z,99055.89
2017-12-10T05:38:52.045Z,99054.31
2017-12-10T05:41:19.505Z,99047.02
2017-12-10T05:43:46.980Z,99047.55
2017-12-10T05:46:14.415Z,99050.14
2017-12-10T05:48:41.875Z,99044.48
2017-12-10T05:51:09.469Z,99036.94
2017-12-10T05:53:36.962Z,99039.65
2017-12-10T05:56:04.427Z,99029.47
2017-12-10T05:58:31.948Z,99028.02
2017-12-10T06:00:59.408Z,99021.80
2017-12-10T06:03:26.854Z,99014.33
2017-12-10T06:05:54.346Z,99009.59
2017-12-10T06:08:21.840Z,99003.59
2017-12-10T06:10:49.308Z,98997.14
2017-12-10T06:13:16.769Z,98986.31
2017-12-10T06:15:44.213Z,98979.55
2017-12-10T06:18:11.672Z,98971.13
2017-12-10T06:20:39.113Z,98969.86
2017-12-10T06:23:06.562Z,98963.32
2017-12-10T06:25:34.014Z,98956.83
2017-12-10T06:28:01.584Z,98947.36
2017-12-10T06:30:29.125Z,98946.61
2017-12-10T06:32:56.530Z,98949.20
2017-12-10T06:35:23.990Z,98949.68
2017-12-10T06:37:51.466Z,98945.34
2017-12-10T06:40:18.922Z,98936.27
2017-12-10T06:42:46.383Z,98936.88
2017-12-10T06:45:13.944Z,98928.94
2017-12-10T06:47:41.393Z,98927.58
2017-12-10T06:50:08.881Z,98924.64
2017-12-10T06:52:36.323Z,98927.36
2017-12-10T06:55:03.774Z,98928.75
2017-12-10T06:57:31.236Z,98917.13
2017-12-10T06:59:58.713Z,98918.52
2017-12-10T07:02:26.282Z,98914.52
2017-12-10T07:04:53.749Z,98908.02
2017-12-10T07:07:21.250Z,98898.72
2017-12-10T07:09:48.790Z,98892.55
2017-12-10T07:12:16.351Z,98889.11
2017-12-10T07:14:43.910Z,98880.92
2017-12-10T07:17:11.412Z,98874.17
2017-12-10T07:19:38.968Z,98857.04
2017-12-10T07:22:06.427Z,98855.91
2017-12-10T07:24:33.880Z,98847.02
2017-12-10T07:27:01.441Z,98844.42
2017-12-10T07:29:28.953Z,98842.28
2017-12-10T07:31:56.532Z,98831.78
2017-12-10T07:34:23.988Z,98827.92
2017-12-10T07:36:51.437Z,98822.48
2017-12-10T07:39:18.912Z,98817.61
2017-12-10T07:41:46.367Z,98805.52
2017-12-10T07:44:13.819Z,98800.78
2017-12-10T07:46:41.340Z,98793.62
2017-12-10T07:49:08.796Z,98784.33
2017-12-10T07:51:36.262Z,98782.45
2017-12-10T07:54:03.748Z,98762.53
2017-12-10T07:56:31.189Z,98746.45
2017-12-10T07:58:58.770Z,98742.44
2017-12-10T08:01:26.234Z,98729.83
2017-12-10T08:03:53.729Z,98725.04
2017-12-10T08:06:21.175Z,98715.84
2017-12-10T08:08:48.635Z,98715.64
2017-12-10T08:11:16.084Z,98702.00
2017-12-10T08:13:43.534Z,98705.97
2017-12-10T08:16:11.071Z,98704.41
2017-12-10T08:18:38.525Z,98693.04
2017-12-10T08:21:06.074Z,98690.79
2017-12-10T08:23:33.549Z,98690.73
2017-12-10T08:26:01.019Z,98687.70
2017-12-10T08:28:28.542Z,98677.53
2017-12-10T08:30:56.100Z,98674.75
2017-12-10T08:33:23.538Z,98669.50
2017-12-10T08:35:51.053Z,98663.27
2017-12-10T08:38:18.521Z,98657.10
2017-12-10T08:40:46.028Z,98649.13
2017-12-10T08:43:13.560Z,98655.88
2017-12-10T08:45:41.051Z,98650.89
2017-12-10T08:48:08.590Z,98654.31
2017-12-10T08:50:36.017Z,98654.60
2017-12-10T08:53:03.467Z,98641.84
2017-12-10T08:55:30.906Z,98637.30
2017-12-10T08:57:58.360Z,98628.59
2017-12-10T09:00:25.800Z,98622.22
2017-12-10T09:02:53.262Z,98614.37
2017-12-10T09:05:20.788Z,98604.59
2017-12-10T09:07:48.653Z,98595.14
2017-12-10T09:10:16.142Z,98585.38
2017-12-10T09:12:43.602Z,98596.73
2017-12-10T09:15:11.068Z,98569.37
2017-12-10T09:17:38.514Z,98574.66
2017-12-10T09:20:05.990Z,98569.95
2017-12-10T09:22:33.474Z,98561.43
2017-12-10T09:25:00.976Z,98555.98
2017-12-10T09:27:28.476Z,98557.52
2017-12-10T09:29:55.929Z,98542.47
2017-12-10T09:32:23.459Z,98543.09
2017-12-10T09:34:50.944Z,98530.46
2017-12-10T09:37:18.402Z,98521.08
2017-12-10T09:39:45.839Z,98516.19
2017-12-10T09:42:13.289Z,98499.58
2017-12-10T09:44:40.748Z,98489.90
2017-12-10T09:47:08.266Z,98480.41
2017-12-10T09:49:35.751Z,98469.97
2017-12-10T09:52:03.231Z,98469.42
2017-12-10T09:54:30.697Z,98458.45
2017-12-10T09:56:58.265Z,98451.40
2017-12-10T09:59:25.714Z,98438.75
2017-12-10T10:01:53.197Z,98433.00
2017-12-10T10:04:21.137Z,98424.06
2017-12-10T10:06:51.148Z,98415.47
2017-12-10T10:09:18.675Z,98402.19
2017-12-10T10:11:46.132Z,98379.95
2017-12-10T10:14:13.604Z,98372.14
2017-12-10T10:16:41.099Z,98359.22
2017-12-10T10:19:08.566Z,98344.72
2017-12-10T10:21:36.023Z,98342.59
2017-12-10T10:24:03.502Z,98334.52
2017-12-10T10:26:30.969Z,98336.12
2017-12-10T10:28:58.425Z,98327.26
2017-12-10T10:31:25.914Z,98312.17
2017-12-10T10:33:53.386Z,98286.77
2017-12-10T10:36:20.851Z,98286.02
2017-12-10T10:38:48.306Z,98277.58
2017-12-10T10:41:15.820Z,98272.55
2017-12-10T10:43:43.263Z,98265.49
2017-12-10T10:46:10.966Z,98246.17
2017-12-10T10:48:38.423Z,98245.52
2017-12-10T10:51:05.976Z,98240.08
2017-12-10T10:53:33.424Z,98232.14
2017-12-10T10:56:00.886Z,98213.43
2017-12-10T10:58:28.349Z,98211.01
2017-12-10T11:00:55.910Z,98205.00
2017-12-10T11:03:23.447Z,98211.84
2017-12-10T11:05:50.931Z,98194.05
2017-12-10T11:08:18.377Z,98187.20
2017-12-10T11:10:45.949Z,98182.55
2017-12-10T11:13:13.413Z,98164.17
2017-12-10T11:15:40.888Z,98159.89
2017-12-10T11:18:09.396Z,98159.05
2017-12-10T11:20:36.856Z,98128.95
2017-12-10T11:23:04.311Z,98125.09
2017-12-10T11:25:31.823Z,98128.86
2017-12-10T11:27:59.269Z,98118.76
2017-12-10T11:30:26.729Z,98112.31
2017-12-10T11:32:54.216Z,98105.22
2017-12-10T11:35:21.784Z,98105.78
2017-12-10T11:37:49.242Z,98086.81
2017-12-10T11:40:16.878Z,98083.84
2017-12-10T11:42:44.357Z,98079.81
2017-12-10T11:45:11.814Z,98066.40
2017-12-10T11:47:39.347Z,98062.12
2017-12-10T11:50:06.816Z,98056.45
2017-12-10T11:52:34.285Z,98045.77
2017-12-10T11:55:01.847Z,98023.37
2017-12-10T11:57:29.303Z,98012.77
2017-12-10T11:59:56.759Z,98018.02
2017-12-10T12:02:24.235Z,98009.01
2017-12-10T12:04:51.664Z,97993.73
2017-12-10T12:07:19.233Z,97994.09
2017-12-10T12:09:46.745Z,97972.52
2017-12-10T12:12:15.727Z,97957.83
2017-12-10T12:14:43.207Z,97948.87
2017-12-10T12:17:10.650Z,97936.48
2017-12-10T12:19:38.142Z,97927.14
2017-12-10T12:22:05.631Z,97910.50
2017-12-10T12:24:33.211Z,97922.55
2017-12-10T12:27:00.649Z,97898.94
2017-12-10T12:29:28.181Z,97888.99
2017-12-10T12:31:55.617Z,97878.21
2017-12-10T12:34:23.066Z,97876.34
2017-12-10T12:36:50.524Z,97856.45
2017-12-10T12:39:17.991Z,97864.94
2017-12-10T12:41:45.465Z,97872.92
2017-12-10T12:44:12.965Z,97882.14
2017-12-10T12:46:40.453Z,97859.57
2017-12-10T12:49:07.924Z,97865.77
2017-12-10T12:51:35.404Z,97843.77
2017-12-10T12:54:02.949Z,97834.26
2017-12-10T12:56:30.406Z,97820.28
2017-12-10T12:58:57.938Z,97814.08
2017-12-10T13:01:25.354Z,97807.92
2017-12-10T13:03:52.817Z,97803.25
2017-12-10T13:06:20.277Z,97786.58
2017-12-10T13:08:47.738Z,97763.77
2017-12-10T13:11:15.248Z,97754.77
2017-12-10T13:13:42.722Z,97745.79
2017-12-10T13:16:10.215Z,97747.45
2017-12-10T13:18:37.784Z,97732.83
2017-12-10T13:21:05.279Z,97728.24
2017-12-10T13:23:32.805Z,97708.99
2017-12-10T13:26:00.259Z,97693.80
2017-12-10T13:28:27.706Z,97680.64
2017-12-10T13:30:55.163Z,97681.46
2017-12-10T13:33:22.599Z,97668.11
2017-12-10T13:35:50.193Z,97649.41
2017-12-10T13:38:17.709Z,97637.18
2017-12-10T13:40:45.206Z,97613.63
2017-12-10T13:43:12.665Z,97618.22
2017-12-10T13:45:40.230Z,97605.94
2017-12-10T13:48:07.673Z,97603.50
2017-12-10T13:50:35.120Z,97588.44
2017-12-10T13:53:02.561Z,97578.02
2017-12-10T13:55:30.006Z,97564.09
2017-12-10T13:57:57.464Z,97547.20
2017-12-10T14:00:24.908Z,97544.56
2017-12-10T14:02:52.368Z,97545.37
2017-12-10T14:05:19.883Z,97536.98
2017-12-10T14:07:47.343Z,97525.41
2017-12-10T14:10:14.809Z,97514.34
2017-12-10T14:12:42.275Z,97497.84
2017-12-10T14:15:09.782Z,97491.25
2017-12-10T14:17:37.244Z,97483.88
2017-12-10T14:20:04.860Z,97462.14
2017-12-10T14:22:32.313Z,97467.72
2017-12-10T14:24:59.768Z,97466.42
2017-12-10T14:27:27.269Z,97465.11
2017-12-10T14:29:54.742Z,97464.45
2017-12-10T14:32:22.186Z,97462.59
2017-12-10T14:34:49.633Z,97457.05
2017-12-10T14:37:18.016Z,97461.66
2017-12-10T14:39:45.504Z,97438.45
2017-12-10T14:42:12.957Z,97432.52
2017-12-10T14:44:40.411Z,97453.34
2017-12-10T14:47:07.849Z,97437.88
2017-12-10T14:49:35.289Z,97433.75
2017-12-10T14:52:02.791Z,97465.77
2017-12-10T14:54:30.740Z,97484.76
2017-12-10T14:56:58.347Z,97483.80
2017-12-10T14:59:25.845Z,97491.34
2017-12-10T15:01:53.530Z,97474.28
2017-12-10T15:04:20.982Z,97447.61
2017-12-10T15:06:48.461Z,97444.68
2017-12-10T15:09:15.928Z,97398.83
2017-12-10T15:11:43.668Z,97392.19
2017-12-10T15:14:11.185Z,97380.13
2017-12-10T15:16:38.655Z,97382.18
2017-12-10T15:19:06.120Z,97391.23
2017-12-10T15:21:33.583Z,97376.35
2017-12-10T15:24:01.071Z,97369.28
2017-12-10T15:26:28.529Z,97366.80
2017-12-10T15:28:56.006Z,97351.32
2017-12-10T15:31:23.532Z,97342.06
2017-12-10T15:33:51.269Z,97346.44
2017-12-10T15:36:18.715Z,97338.89
2017-12-10T15:38:46.180Z,97331.94
2017-12-10T15:41:13.660Z,97330.55
2017-12-10T15:43:45.554Z,97328.35
2017-12-10T15:46:13.042Z,97317.08
2017-12-10T15:48:40.574Z,97305.55
2017-12-10T15:51:08.012Z,97302.20
2017-12-10T15:53:35.520Z,97270.81
2017-12-10T15:56:02.986Z,97288.55
2017-12-10T15:58:30.452Z,97261.55
2017-12-10T16:00:57.910Z,97249.69
2017-12-10T16:03:25.354Z,97233.98
2017-12-10T16:05:52.828Z,97229.13
2017-12-10T16:08:20.304Z,97223.78
2017-12-10T16:10:47.777Z,97230.62
2017-12-10T16:13:15.232Z,97191.75
2017-12-10T16:15:42.848Z,97185.44
2017-12-10T16:18:10.327Z,97205.70
2017-12-10T16:20:37.800Z,97179.50
2017-12-10T16:23:05.328Z,97180.98
2017-12-10T16:25:32.833Z,97165.73
2017-12-10T16:28:00.302Z,97172.03
2017-12-10T16:30:27.745Z,97175.73
2017-12-10T16:32:55.212Z,97176.45
2017-12-10T16:35:22.651Z,97148.58
2017-12-10T16:37:50.217Z,97138.22
2017-12-10T16:40:17.690Z,97129.52
2017-12-10T16:42:45.157Z,97145.09
2017-12-10T16:45:12.642Z,97114.61
2017-12-10T16:47:40.137Z,97116.16
2017-12-10T16:50:07.594Z,97132.59
2017-12-10T16:52:35.069Z,97119.66
2017-12-10T16:55:02.539Z,97115.48
2017-12-10T16:57:29.976Z,97110.55
2017-12-10T16:59:57.518Z,97110.17
2017-12-10T17:02:24.985Z,97118.64
2017-12-10T17:04:52.437Z,97150.88
2017-12-10T17:07:19.920Z,97129.74
2017-12-10T17:09:47.416Z,97129.67
2017-12-10T17:12:15.022Z,97128.64
2017-12-10T17:14:42.534Z,97131.59
2017-12-10T17:17:09.998Z,97115.27
2017-12-10T17:19:37.489Z,97122.43
2017-12-10T17:22:04.949Z,97113.14
2017-12-10T17:24:32.432Z,97103.85
2017-12-10T17:26:59.982Z,97082.37
2017-12-10T17:29:27.428Z,97081.52
2017-12-10T17:31:54.886Z,97092.43
2017-12-10T17:34:22.336Z,97072.14
2017-12-10T17:36:49.809Z,97064.52
2017-12-10T17:39:17.269Z,97052.73
2017-12-10T17:41:44.756Z,97037.31
2017-12-10T17:44:12.218Z,97038.31
2017-12-10T17:46:39.715Z,97037.45
2017-12-10T17:49:07.167Z,97019.75
2017-12-10T17:51:34.619Z,97020.42
2017-12-10T17:54:02.085Z,97035.89
2017-12-10T17:56:29.536Z,97026.34
2017-12-10T17:58:57.109Z,97021.95
2017-12-10T18:01:27.280Z,97011.32
2017-12-10T18:03:54.748Z,97012.88
2017-12-10T18:06:22.274Z,97017.11
2017-12-10T18:08:49.832Z,97036.45
2017-12-10T18:11:17.303Z,97052.52
2017-12-10T18:13:44.789Z,97035.16
2017-12-10T18:16:12.645Z,97036.25
2017-12-10T18:18:40.116Z,97031.55
2017-12-10T18:21:07.613Z,97035.50
2017-12-10T18:23:35.060Z,97025.59
2017-12-10T18:26:02.519Z,97064.28
2017-12-10T18:28:29.970Z,97053.84
2017-12-10T18:30:57.436Z,97018.08
2017-12-10T18:33:24.889Z,97033.28
2017-12-10T18:35:52.412Z,97032.23
2017-12-10T18:38:19.863Z,97018.05
2017-12-10T18:40:47.389Z,97046.97
2017-12-10T18:43:14.849Z,97043.34
2017-12-10T18:45:42.399Z,97062.31
2017-12-10T18:48:09.918Z,97050.50
2017-12-10T18:50:37.359Z,97068.45
2017-12-10T18:53:04.895Z,97039.97
2017-12-10T18:55:32.349Z,97042.73
2017-12-10T18:57:59.859Z,97053.42
2017-12-10T19:00:27.310Z,97030.67
2017-12-10T19:02:54.786Z,97040.28
2017-12-10T19:05:22.240Z,97046.39
2017-12-10T19:07:49.741Z,97035.65
2017-12-10T19:10:17.255Z,97045.97
2017-12-10T19:12:44.710Z,97029.84
2017-12-10T19:15:12.177Z,97036.30
2017-12-10T19:17:39.643Z,97041.58
2017-12-10T19:20:07.092Z,97042.83
2017-12-10T19:22:34.533Z,97039.75
2017-12-10T19:25:02.007Z,97038.77
2017-12-10T19:27:29.446Z,97043.59
2017-12-10T19:29:56.895Z,97032.83
2017-12-10T19:32:24.357Z,97036.34
2017-12-10T19:34:51.894Z,97042.21
2017-12-10T19:37:19.356Z,97038.54
2017-12-10T19:39:46.836Z,97036.06
2017-12-10T19:42:14.326Z,97034.91
2017-12-10T19:44:41.794Z,97033.09
2017-12-10T19:47:09.300Z,97040.32
2017-12-10T19:49:36.810Z,97049.12
2017-12-10T19:52:04.262Z,97040.80
2017-12-10T19:54:31.742Z,97037.47
2017-12-10T19:56:59.231Z,97031.69
2017-12-10T19:59:26.686Z,97032.56
2017-12-10T20:01:54.227Z,97036.56
2017-12-10T20:04:21.672Z,97037.21
2017-12-10T20:06:49.175Z,97040.92
2017-12-10T20:09:16.658Z,97026.58
2017-12-10T20:11:44.552Z,97030.42
2017-12-10T20:14:12.086Z,97020.69
2017-12-10T20:16:39.551Z,97017.66
2017-12-10T20:19:07.003Z,97019.85
2017-12-10T20:21:35.325Z,97012.30
2017-12-10T20:24:02.785Z,97024.36
2017-12-10T20:26:30.256Z,97011.90
2017-12-10T20:28:57.701Z,97012.38
2017-12-10T20:31:25.196Z,97007.13
2017-12-10T20:33:52.815Z,97023.80
2017-12-10T20:36:22.709Z,97017.63
2017-12-10T20:38:50.930Z,97005.70
2017-12-10T20:41:18.485Z,97003.00
2017-12-10T20:43:46.044Z,97009.55
2017-12-10T20:46:13.552Z,97012.66
2017-12-10T20:48:41.113Z,97011.72
2017-12-10T20:51:08.607Z,97008.38
2017-12-10T20:53:36.048Z,97010.69
2017-12-10T20:56:03.589Z,96993.16
2017-12-10T20:58:31.027Z,96994.77
2017-12-10T21:00:58.480Z,96999.94
2017-12-10T21:03:25.926Z,96993.32
2017-12-10T21:05:53.375Z,96995.61
2017-12-10T21:08:20.853Z,96992.91
2017-12-10T21:10:48.357Z,96992.41
2017-12-10T21:13:16.083Z,96984.05
2017-12-10T21:15:43.533Z,96989.38
2017-12-10T21:18:10.988Z,96988.76
2017-12-10T21:20:38.522Z,96997.94
2017-12-10T21:23:05.988Z,96985.22
2017-12-10T21:25:33.437Z,96988.97
2017-12-10T21:28:00.893Z,96984.94
2017-12-10T21:30:28.413Z,96998.14
2017-12-10T21:32:55.980Z,96990.77
2017-12-10T21:35:23.462Z,96989.11
2017-12-10T21:37:50.911Z,96977.51
2017-12-10T21:40:18.378Z,96983.59
2017-12-10T21:42:45.898Z,96970.37
2017-12-10T21:45:13.413Z,96970.44
2017-12-10T21:47:40.910Z,96971.52
2017-12-10T21:50:11.173Z,96971.55
2017-12-10T21:52:38.760Z,96958.70
2017-12-10T21:55:06.216Z,96954.77
2017-12-10T21:57:33.873Z,96969.75
2017-12-10T22:00:01.415Z,96967.43
2017-12-10T22:02:28.865Z,96950.27
2017-12-10T22:04:56.323Z,96947.50
2017-12-10T22:07:23.836Z,96934.98
2017-12-10T22:09:51.320Z,96930.64
2017-12-10T22:12:18.763Z,96929.19
2017-12-10T22:14:46.237Z,96942.90
2017-12-10T22:17:13.754Z,96948.28
2017-12-10T22:19:41.203Z,96938.02
2017-12-10T22:22:08.755Z,96932.08
2017-12-10T22:24:36.230Z,96943.23
2017-12-10T22:27:03.703Z,96952.40
2017-12-10T22:29:31.147Z,96934.15
2017-12-10T22:31:58.606Z,96945.02
2017-12-10T22:34:26.080Z,96936.84
2017-12-10T22:36:53.647Z,96934.07
2017-12-10T22:39:21.158Z,96930.58
2017-12-10T22:41:48.820Z,96937.64
2017-12-10T22:44:16.290Z,96934.81
2017-12-10T22:46:43.800Z,96938.18
2017-12-10T22:49:11.287Z,96941.50
2017-12-10T22:51:38.796Z,96937.01
2017-12-10T22:54:06.272Z,96935.44
2017-12-10T22:56:33.723Z,96938.34
2017-12-10T22:59:01.183Z,96932.72
2017-12-10T23:01:28.684Z,96926.27
2017-12-10T23:03:56.248Z,96927.52
2017-12-10T23:06:23.706Z,96921.13
2017-12-10T23:08:51.153Z,96915.41
2017-12-10T23:11:18.678Z,96916.03
2017-12-10T23:13:57.768Z,96908.09
2017-12-10T23:16:27.004Z,96920.73
2017-12-10T23:18:54.446Z,96914.46
2017-12-10T23:21:21.896Z,96909.25
2017-12-10T23:23:49.341Z,96916.12
2017-12-10T23:26:16.875Z,96911.14
2017-12-10T23:28:44.318Z,96913.16
2017-12-10T23:31:11.837Z,96917.05
2017-12-10T23:33:39.308Z,96902.69
2017-12-10T23:36:06.796Z,96897.67
2017-12-10T23:38:34.353Z,96904.87
2017-12-10T23:41:01.822Z,96903.30
2017-12-10T23:43:29.308Z,96912.19
2017-12-10T23:45:56.769Z,96918.48
2017-12-10T23:48:24.226Z,96921.58
2017-12-10T23:50:51.699Z,96919.61
2017-12-10T23:53:19.144Z,96921.92
2017-12-10T23:55:46.661Z,96920.05
2017-12-10T23:58:14.138Z,96916.14
